Accueil
METAR-TAF:

METAR-TAF

Aéroports :

Aéroport international de Rarotonga

Rarotonga, Îles Cook

latitude: 21-12S, longitude: 159-49W, altitude: 7 m

Observation

Le bulletin a été fait il y a 13 minutes, à 01:30 UTC
Vent 11 kt de est, variant entre est/nord-est et est/sud-est
Température 26°C
Humidité 74%
Pression 1009 hPa
Visibilité 10 km ou plus

METAR: NCRG 180130Z AUTO 08011KT 060V120 9999 NCD 26/21 Q1009

Heure: 15:43 (01:43 UTC)

Prévision

Le bulletin a été fait il y a 2 heures et 37 minutes, à 23:06 UTC
Prévision valable du 18 à 00 UTC au 18 à 24 UTC
Vent 12 kt de est
Visibilité 10 km ou plus
Nuages épars à une hauteur de 3500 ft
Nuages épars à une hauteur de 5500 ft

TAF: NCRG 172306Z 1800/1824 08012KT 9999 SCT035 SCT055

Observations et prévisions météorologiques de plus de 4000 aéroports (messages METAR et TAF).

Les stations disponibles sont représentées par des disques jaunes et rouges sur la carte.

Passer la souris dessus pour voir le nom de la station.

Cliquer dessus pour voir les observations et prévisions météorologiques.

Pour changer de carte: cliquez sur les boutons verts avec une croix noire pour zoomer, sur le bouton vert avec un tiret pour effectuer un zoom arrière, ou sur les flèches vertes pour les cartes adjacentes.


METAR-TAF: